Terminal Aerodrome Forecast
Issued by NWS Tulsa, OK

Home | Current Version | Previous Version | Text Only | Print | Product List | Glossary On
Versions: 1 2 3 4 5 6 7 8 9 10 11 12 13 14 15 16
000
FTUS44 KTSA 251725
TAFFSM
TAF
KFSM 251725Z 2518/2618 17012G21KT P6SM SCT250
     FM260300 17008KT P6SM BKN050
      TEMPO 2606/2610 2SM TSRA OVC010CB
     FM261000 22009KT 4SM -SHRA VCTS OVC008CB=

USA.gov is the U.S. government's official web portal to all federal, state and local government web resources and services.